createdAt,value
2018-12-02T00:01:06.398Z,14.50
2018-12-02T00:03:34.798Z,16.33
2018-12-02T00:06:03.305Z,13.37
2018-12-02T00:08:34.136Z,15.23
2018-12-02T00:11:02.613Z,13.80
2018-12-02T00:13:31.213Z,12.63
2018-12-02T00:15:59.670Z,12.10
2018-12-02T00:18:28.014Z,12.93
2018-12-02T00:20:57.444Z,12.37
2018-12-02T00:23:25.880Z,13.43
2018-12-02T00:25:54.940Z,14.03
2018-12-02T00:28:23.474Z,14.13
2018-12-02T00:30:52.107Z,13.80
2018-12-02T00:33:20.581Z,14.73
2018-12-02T00:35:49.127Z,14.93
2018-12-02T00:38:17.661Z,15.03
2018-12-02T00:40:46.146Z,14.83
2018-12-02T00:43:14.785Z,15.00
2018-12-02T00:45:43.299Z,15.10
2018-12-02T00:48:11.882Z,14.87
2018-12-02T00:50:40.256Z,15.07
2018-12-02T00:53:09.550Z,14.30
2018-12-02T00:55:39.683Z,15.17
2018-12-02T00:58:08.056Z,13.93
2018-12-02T01:00:36.587Z,15.97
2018-12-02T01:03:06.099Z,16.23
2018-12-02T01:05:34.667Z,16.43
2018-12-02T01:08:03.039Z,20.87
2018-12-02T01:10:31.498Z,17.20
2018-12-02T01:13:00.816Z,16.03
2018-12-02T01:15:32.800Z,16.70
2018-12-02T01:18:12.500Z,15.80
2018-12-02T01:20:44.697Z,16.40
2018-12-02T01:23:27.742Z,15.97
2018-12-02T01:26:00.218Z,16.87
2018-12-02T01:28:34.161Z,16.03
2018-12-02T01:31:17.608Z,17.27
2018-12-02T01:34:04.489Z,16.57
2018-12-02T01:36:46.901Z,17.47
2018-12-02T01:39:15.694Z,17.17
2018-12-02T01:41:44.031Z,20.13
2018-12-02T01:44:44.788Z,19.20
2018-12-02T01:47:13.439Z,19.77
2018-12-02T01:49:42.231Z,21.97
2018-12-02T01:52:11.099Z,21.03
2018-12-02T01:54:39.562Z,20.73
2018-12-02T01:57:07.939Z,20.63
2018-12-02T01:59:36.506Z,21.33
2018-12-02T02:02:04.927Z,20.17
2018-12-02T02:04:33.522Z,21.57
2018-12-02T02:07:01.857Z,18.30
2018-12-02T02:09:30.511Z,19.40
2018-12-02T02:11:59.204Z,22.10
2018-12-02T02:14:27.631Z,25.00
2018-12-02T02:16:55.942Z,21.60
2018-12-02T02:19:24.507Z,23.00
2018-12-02T02:21:53.019Z,21.47
2018-12-02T02:24:21.474Z,22.53
2018-12-02T02:26:49.773Z,24.73
2018-12-02T02:29:18.385Z,23.67
2018-12-02T02:31:46.767Z,23.30
2018-12-02T02:34:15.334Z,24.07
2018-12-02T02:36:43.781Z,24.40
2018-12-02T02:39:12.159Z,26.70
2018-12-02T02:41:40.644Z,24.63
2018-12-02T02:44:09.110Z,26.93
2018-12-02T02:46:37.402Z,25.48
2018-12-02T02:49:06.162Z,26.20
2018-12-02T02:51:34.542Z,25.97
2018-12-02T02:54:02.928Z,25.50
2018-12-02T02:56:31.533Z,27.80
2018-12-02T02:58:59.892Z,24.10
2018-12-02T03:01:28.345Z,24.40
2018-12-02T03:03:56.695Z,24.33
2018-12-02T03:06:25.143Z,27.90
2018-12-02T03:08:54.772Z,23.63
2018-12-02T03:11:23.318Z,22.70
2018-12-02T03:13:51.655Z,21.83
2018-12-02T03:16:20.058Z,23.03
2018-12-02T03:18:48.437Z,21.20
2018-12-02T03:21:16.947Z,24.67
2018-12-02T03:23:45.704Z,22.07
2018-12-02T03:26:14.255Z,24.57
2018-12-02T03:28:42.746Z,25.20
2018-12-02T03:31:11.324Z,27.27
2018-12-02T03:33:39.771Z,21.40
2018-12-02T03:36:08.039Z,23.13
2018-12-02T03:38:36.514Z,25.03
2018-12-02T03:41:05.336Z,22.93
2018-12-02T03:43:33.748Z,23.90
2018-12-02T03:46:02.094Z,21.87
2018-12-02T03:48:30.893Z,21.13
2018-12-02T03:50:59.585Z,22.13
2018-12-02T03:53:27.991Z,21.87
2018-12-02T03:55:56.565Z,22.20
2018-12-02T03:58:25.409Z,19.85
2018-12-02T04:00:53.902Z,18.40
2018-12-02T04:03:27.056Z,18.00
2018-12-02T04:05:55.536Z,19.80
2018-12-02T04:08:23.890Z,16.73
2018-12-02T04:10:52.195Z,18.40
2018-12-02T04:13:21.253Z,16.03
2018-12-02T04:15:51.552Z,16.30
2018-12-02T04:18:19.888Z,16.23
2018-12-02T04:20:48.847Z,16.30
2018-12-02T04:23:17.216Z,14.73
2018-12-02T04:25:45.531Z,13.87
2018-12-02T04:28:13.877Z,14.97
2018-12-02T04:30:42.492Z,14.17
2018-12-02T04:33:10.831Z,14.43
2018-12-02T04:35:39.324Z,14.80
2018-12-02T04:38:08.254Z,13.50
2018-12-02T04:40:36.637Z,13.70
2018-12-02T04:43:05.247Z,10.13
2018-12-02T04:45:33.743Z,8.60
2018-12-02T04:48:02.125Z,9.17
2018-12-02T04:50:30.433Z,8.57
2018-12-02T04:52:58.717Z,7.53
2018-12-02T04:55:27.386Z,7.53
2018-12-02T04:57:55.669Z,5.03
2018-12-02T05:00:24.164Z,4.40
2018-12-02T05:02:52.979Z,5.07
2018-12-02T05:05:25.420Z,3.90
2018-12-02T05:07:54.443Z,4.00
2018-12-02T05:10:23.122Z,3.40
2018-12-02T05:12:51.692Z,3.40
2018-12-02T05:15:21.017Z,3.77
2018-12-02T05:17:49.504Z,2.30
2018-12-02T05:20:20.578Z,3.03
2018-12-02T05:22:49.093Z,2.47
2018-12-02T05:25:18.606Z,3.07
2018-12-02T05:27:47.824Z,2.57
2018-12-02T05:30:17.105Z,2.60
2018-12-02T05:32:46.277Z,2.37
2018-12-02T05:35:15.137Z,2.70
2018-12-02T05:37:44.001Z,2.90
2018-12-02T05:40:21.973Z,2.90
2018-12-02T05:42:50.559Z,3.67
2018-12-02T05:45:19.268Z,3.03
2018-12-02T05:47:47.882Z,2.97
2018-12-02T05:50:17.947Z,3.15
2018-12-02T05:52:49.662Z,3.90
2018-12-02T05:55:20.362Z,4.23
2018-12-02T05:57:48.693Z,4.77
2018-12-02T06:00:19.485Z,5.60
2018-12-02T06:02:47.913Z,7.65
2018-12-02T06:05:16.298Z,8.03
2018-12-02T06:07:44.811Z,9.87
2018-12-02T06:10:14.996Z,9.73
2018-12-02T06:12:43.440Z,10.33
2018-12-02T06:15:17.656Z,10.73
2018-12-02T06:17:46.176Z,10.27
2018-12-02T06:20:17.769Z,10.63
2018-12-02T06:22:46.743Z,9.90
2018-12-02T06:25:15.551Z,10.10
2018-12-02T06:27:44.663Z,10.60
2018-12-02T06:30:16.373Z,12.10
2018-12-02T06:33:28.137Z,12.67
2018-12-02T06:36:41.161Z,12.03
2018-12-02T06:39:11.125Z,14.53
2018-12-02T06:41:40.102Z,11.60
2018-12-02T06:44:08.431Z,14.70
2018-12-02T06:46:36.968Z,13.50
2018-12-02T06:49:05.399Z,14.90
2018-12-02T06:51:33.746Z,15.13
2018-12-02T06:54:02.604Z,14.83
2018-12-02T06:56:36.663Z,16.03
2018-12-02T06:59:45.665Z,14.27
2018-12-02T07:02:30.216Z,15.13
2018-12-02T07:04:58.549Z,15.23
2018-12-02T07:07:27.267Z,15.80
2018-12-02T07:09:55.850Z,12.83
2018-12-02T07:12:25.527Z,16.50
2018-12-02T07:14:54.138Z,13.97
2018-12-02T07:17:24.823Z,12.07
2018-12-02T07:19:55.367Z,19.50
2018-12-02T07:22:28.079Z,14.03
2018-12-02T07:25:05.381Z,15.60
2018-12-02T07:27:34.311Z,32.73
2018-12-02T07:30:02.955Z,19.70
2018-12-02T07:32:31.531Z,19.53
2018-12-02T07:35:00.240Z,17.07
2018-12-02T07:37:29.094Z,17.03
2018-12-02T07:40:33.212Z,18.07
2018-12-02T07:43:16.358Z,14.87
2018-12-02T07:45:47.282Z,19.13
2018-12-02T07:48:18.801Z,18.37
2018-12-02T07:50:47.153Z,15.40
2018-12-02T07:53:17.487Z,15.90
2018-12-02T07:55:54.976Z,12.60
2018-12-02T07:58:24.296Z,14.70
2018-12-02T08:00:52.699Z,11.43
2018-12-02T08:03:21.352Z,9.90
2018-12-02T08:05:49.925Z,15.10
2018-12-02T08:08:19.174Z,13.50
2018-12-02T08:11:10.559Z,19.03
2018-12-02T08:13:38.973Z,16.23
2018-12-02T08:16:08.509Z,17.90
2018-12-02T08:22:39.319Z,18.43
2018-12-02T08:25:09.576Z,24.10
2018-12-02T08:27:37.967Z,20.60
2018-12-02T08:30:14.720Z,20.73
2018-12-02T08:32:43.479Z,14.93
2018-12-02T08:35:12.918Z,13.17
2018-12-02T08:37:41.999Z,18.83
2018-12-02T08:40:12.126Z,17.20
2018-12-02T08:42:40.724Z,16.10
2018-12-02T08:45:10.862Z,21.02
2018-12-02T08:47:39.762Z,19.93
2018-12-02T08:50:11.669Z,13.85
2018-12-02T08:52:40.280Z,14.10
2018-12-02T08:55:10.056Z,15.07
2018-12-02T08:57:38.508Z,14.40
2018-12-02T09:00:10.039Z,21.73
2018-12-02T09:02:38.462Z,14.03
2018-12-02T09:05:09.906Z,17.63
2018-12-02T09:07:38.734Z,18.43
2018-12-02T09:10:14.320Z,19.90
2018-12-02T09:12:42.909Z,19.10
2018-12-02T09:15:11.493Z,16.35
2018-12-02T09:17:40.339Z,15.87
2018-12-02T09:20:28.852Z,14.57
2018-12-02T09:22:57.200Z,17.40
2018-12-02T09:25:25.903Z,16.12
2018-12-02T09:27:54.513Z,15.68
2018-12-02T09:30:28.845Z,13.15
2018-12-02T09:32:57.766Z,19.53
2018-12-02T09:35:26.633Z,14.98
2018-12-02T09:37:55.251Z,13.13
2018-12-02T09:40:23.681Z,16.97
2018-12-02T09:42:55.266Z,17.83
2018-12-02T09:45:25.882Z,14.83
2018-12-02T09:47:55.339Z,12.13
2018-12-02T09:50:24.734Z,20.95
2018-12-02T09:52:53.067Z,19.10
2018-12-02T09:55:28.811Z,13.30
2018-12-02T09:57:57.689Z,17.37
2018-12-02T10:00:26.123Z,17.50
2018-12-02T10:02:54.427Z,14.33
2018-12-02T10:05:22.733Z,14.73
2018-12-02T10:07:51.056Z,19.67
2018-12-02T10:10:22.774Z,19.13
2018-12-02T10:12:51.412Z,17.00
2018-12-02T10:15:19.723Z,22.73
2018-12-02T10:17:48.748Z,15.48
2018-12-02T10:20:17.211Z,21.43
2018-12-02T10:22:46.588Z,17.07
2018-12-02T10:25:16.235Z,18.30
2018-12-02T10:27:44.859Z,17.42
2018-12-02T10:30:14.643Z,17.52
2018-12-02T10:32:43.114Z,20.32
2018-12-02T10:35:11.634Z,18.73
2018-12-02T10:37:40.285Z,26.93
2018-12-02T10:40:17.102Z,16.10
2018-12-02T10:42:51.245Z,20.62
2018-12-02T10:45:21.707Z,19.65
2018-12-02T10:47:51.345Z,23.02
2018-12-02T10:50:36.036Z,13.75
2018-12-02T10:53:14.450Z,18.40
2018-12-02T10:55:46.594Z,21.43
2018-12-02T10:58:16.944Z,20.95
2018-12-02T11:00:51.367Z,22.67
2018-12-02T11:03:19.783Z,13.03
2018-12-02T11:05:48.246Z,19.00
2018-12-02T11:08:16.731Z,19.02
2018-12-02T11:10:45.807Z,22.90
2018-12-02T11:13:14.319Z,19.62
2018-12-02T11:15:43.449Z,28.00
2018-12-02T11:18:12.978Z,25.20
2018-12-02T11:20:42.313Z,26.93
2018-12-02T11:23:10.818Z,33.63
2018-12-02T11:25:39.366Z,28.07
2018-12-02T11:28:08.872Z,29.30
2018-12-02T11:30:37.914Z,21.80
2018-12-02T11:33:06.653Z,33.70
2018-12-02T11:35:35.009Z,22.85
2018-12-02T11:38:03.567Z,23.47
2018-12-02T11:40:32.178Z,27.87
2018-12-02T11:43:00.627Z,23.43
2018-12-02T11:45:29.613Z,20.63
2018-12-02T11:47:58.043Z,25.45
2018-12-02T11:50:27.075Z,23.30
2018-12-02T11:52:55.782Z,22.05
2018-12-02T11:55:26.943Z,20.43
2018-12-02T11:57:55.398Z,21.25
2018-12-02T12:00:24.818Z,27.10
2018-12-02T12:02:53.775Z,22.25
2018-12-02T12:05:22.403Z,18.50
2018-12-02T12:07:51.056Z,21.13
2018-12-02T12:10:24.323Z,21.62
2018-12-02T12:12:55.834Z,17.92
2018-12-02T12:15:25.910Z,17.45
2018-12-02T12:17:58.457Z,16.00
2018-12-02T12:20:29.921Z,18.67
2018-12-02T12:22:59.915Z,21.35
2018-12-02T12:25:29.971Z,23.32
2018-12-02T12:27:59.240Z,20.87
2018-12-02T12:30:31.238Z,19.07
2018-12-02T12:32:59.860Z,19.53
2018-12-02T12:35:28.582Z,18.85
2018-12-02T12:38:00.567Z,19.30
2018-12-02T12:40:34.003Z,18.10
2018-12-02T12:43:08.318Z,18.48
2018-12-02T12:45:36.713Z,21.73
2018-12-02T12:48:05.090Z,25.90
2018-12-02T12:50:33.887Z,25.95
2018-12-02T12:53:02.204Z,32.20
2018-12-02T12:55:30.496Z,23.07
2018-12-02T12:57:59.970Z,26.97
2018-12-02T13:00:37.534Z,33.20
2018-12-02T13:03:06.631Z,26.25
2018-12-02T13:05:35.255Z,21.77
2018-12-02T13:08:03.768Z,22.75
2018-12-02T13:10:32.494Z,19.03
2018-12-02T13:13:05.727Z,18.95
2018-12-02T13:15:34.179Z,14.98
2018-12-02T13:18:03.591Z,14.50
2018-12-02T13:20:34.676Z,19.48
2018-12-02T13:23:03.430Z,12.95
2018-12-02T13:25:32.278Z,20.82
2018-12-02T13:28:01.197Z,15.30
2018-12-02T13:30:30.087Z,16.37
2018-12-02T13:32:59.125Z,15.32
2018-12-02T13:35:27.653Z,15.98
2018-12-02T13:37:56.197Z,13.10
2018-12-02T13:40:24.854Z,14.58
2018-12-02T13:42:58.432Z,12.80
2018-12-02T13:45:27.958Z,13.23
2018-12-02T13:47:56.281Z,15.45
2018-12-02T13:50:24.699Z,16.02
2018-12-02T13:52:54.176Z,14.07
2018-12-02T13:55:28.970Z,16.93
2018-12-02T13:57:57.567Z,18.00
2018-12-02T14:00:26.524Z,14.10
2018-12-02T14:03:06.011Z,14.18
2018-12-02T14:05:34.608Z,13.72
2018-12-02T14:08:02.882Z,10.93
2018-12-02T14:10:32.505Z,15.35
2018-12-02T14:13:03.182Z,18.20
2018-12-02T14:15:56.150Z,15.53
2018-12-02T14:18:35.998Z,16.07
2018-12-02T14:21:04.856Z,17.07
2018-12-02T14:23:33.531Z,13.47
2018-12-02T14:26:06.691Z,14.58
2018-12-02T14:28:44.727Z,13.23
2018-12-02T14:31:13.107Z,10.60
2018-12-02T14:33:41.379Z,11.07
2018-12-02T14:36:09.675Z,9.07
2018-12-02T14:38:38.303Z,10.50
2018-12-02T14:41:07.071Z,10.13
2018-12-02T14:43:36.989Z,10.60
2018-12-02T14:46:05.660Z,6.27
2018-12-02T14:48:33.938Z,12.40
2018-12-02T14:51:02.527Z,9.13
2018-12-02T14:53:32.649Z,11.77
2018-12-02T14:56:00.988Z,10.20
2018-12-02T14:58:29.308Z,8.80
2018-12-02T15:00:57.662Z,9.00
2018-12-02T15:03:26.012Z,7.92
2018-12-02T15:05:54.392Z,9.63
2018-12-02T15:08:23.075Z,12.18
2018-12-02T15:10:51.486Z,10.07
2018-12-02T15:13:19.864Z,10.40
2018-12-02T15:15:48.611Z,6.55
2018-12-02T15:18:17.644Z,11.03
2018-12-02T15:20:46.076Z,14.27
2018-12-02T15:23:15.157Z,13.93
2018-12-02T15:25:43.446Z,12.85
2018-12-02T15:28:11.953Z,11.50
2018-12-02T15:30:40.289Z,15.38
2018-12-02T15:33:08.578Z,12.90
2018-12-02T15:35:38.227Z,13.32
2018-12-02T15:38:06.923Z,14.60
2018-12-02T15:40:35.390Z,15.30
2018-12-02T15:43:03.687Z,14.78
2018-12-02T15:45:31.991Z,13.43
2018-12-02T15:48:00.435Z,13.05
2018-12-02T15:50:28.943Z,9.20
2018-12-02T15:52:57.368Z,8.00
2018-12-02T15:55:28.888Z,9.88
2018-12-02T15:57:57.780Z,8.20
2018-12-02T16:00:32.506Z,9.95
2018-12-02T16:03:01.816Z,14.83
2018-12-02T16:05:30.118Z,17.90
2018-12-02T16:07:58.443Z,10.25
2018-12-02T16:10:26.887Z,13.03
2018-12-02T16:12:55.482Z,10.78
2018-12-02T16:15:26.189Z,17.42
2018-12-02T16:17:55.750Z,14.37
2018-12-02T16:20:31.310Z,17.00
2018-12-02T16:22:59.979Z,11.15
2018-12-02T16:25:28.796Z,12.40
2018-12-02T16:27:57.482Z,19.00
2018-12-02T16:30:32.840Z,17.90
2018-12-02T16:57:14.250Z,21.53
2018-12-02T17:05:16.252Z,18.37
2018-12-02T17:12:26.811Z,21.37
2018-12-02T17:15:06.283Z,29.17
2018-12-02T17:17:38.428Z,20.57
2018-12-02T17:20:17.710Z,19.12
2018-12-02T17:22:52.530Z,22.93
2018-12-02T17:25:30.489Z,23.97
2018-12-02T17:28:02.599Z,23.33
2018-12-02T17:30:38.312Z,22.62
2018-12-02T17:33:11.776Z,25.83
2018-12-02T17:35:42.796Z,24.37
2018-12-02T17:38:13.802Z,20.53
2018-12-02T17:40:44.304Z,22.63
2018-12-02T17:43:20.785Z,22.17
2018-12-02T17:45:52.451Z,21.50
2018-12-02T17:48:24.962Z,17.67
2018-12-02T17:50:59.654Z,22.58
2018-12-02T17:53:29.639Z,14.83
2018-12-02T17:56:01.808Z,13.05
2018-12-02T17:58:33.127Z,19.23
2018-12-02T18:01:05.560Z,16.07
2018-12-02T18:03:35.325Z,17.65
2018-12-02T18:06:11.947Z,18.97
2018-12-02T18:08:41.760Z,17.17
2018-12-02T18:11:12.301Z,16.30
2018-12-02T18:13:42.951Z,18.43
2018-12-02T18:16:13.039Z,13.87
2018-12-02T18:18:43.944Z,15.13
2018-12-02T18:21:13.108Z,23.97
2018-12-02T18:23:42.586Z,18.73
2018-12-02T18:26:14.542Z,16.93
2018-12-02T18:28:46.418Z,13.40
2018-12-02T18:31:15.890Z,18.17
2018-12-02T18:33:46.037Z,18.77
2018-12-02T18:36:19.530Z,12.57
2018-12-02T18:38:51.937Z,14.80
2018-12-02T18:41:34.722Z,19.13
2018-12-02T18:44:06.157Z,21.30
2018-12-02T18:46:38.320Z,16.20
2018-12-02T18:49:07.754Z,24.67
2018-12-02T18:51:37.124Z,21.65
2018-12-02T18:54:07.756Z,22.20
2018-12-02T18:56:38.008Z,17.37
2018-12-02T18:59:07.427Z,19.33
2018-12-02T19:02:31.441Z,18.90
2018-12-02T19:04:59.836Z,19.52
2018-12-02T19:07:28.183Z,21.48
2018-12-02T19:09:56.510Z,20.85
2018-12-02T19:12:25.520Z,25.57
2018-12-02T19:14:54.285Z,19.73
2018-12-02T19:17:23.226Z,33.18
2018-12-02T19:19:51.545Z,22.95
2018-12-02T19:22:19.884Z,16.13
2018-12-02T19:24:48.219Z,17.57
2018-12-02T19:27:16.614Z,24.80
2018-12-02T19:29:46.248Z,30.20
2018-12-02T19:32:14.567Z,14.77
2018-12-02T19:34:43.182Z,17.95
2018-12-02T19:37:12.790Z,13.23
2018-12-02T19:39:41.103Z,19.97
2018-12-02T19:42:09.414Z,19.33
2018-12-02T19:44:38.278Z,26.93
2018-12-02T19:47:06.661Z,20.83
2018-12-02T19:49:36.134Z,19.37
2018-12-02T19:52:03.483Z,18.87
2018-12-02T19:54:32.221Z,23.90
2018-12-02T19:57:00.532Z,25.07
2018-12-02T19:59:28.870Z,20.95
2018-12-02T20:01:57.295Z,19.60
2018-12-02T20:04:26.218Z,20.70
2018-12-02T20:06:54.573Z,17.75
2018-12-02T20:09:23.445Z,24.92
2018-12-02T20:11:51.743Z,17.07
2018-12-02T20:14:20.060Z,15.03
2018-12-02T20:16:48.476Z,20.05
2018-12-02T20:19:22.257Z,15.10
2018-12-02T20:21:50.669Z,15.37
2018-12-02T20:24:24.422Z,13.20
2018-12-02T20:26:52.826Z,13.10
2018-12-02T20:29:21.162Z,13.07
2018-12-02T20:31:49.625Z,16.33
2018-12-02T20:34:18.004Z,17.65
2018-12-02T20:36:46.469Z,12.43
2018-12-02T20:39:14.943Z,10.17
2018-12-02T20:41:43.346Z,11.15
2018-12-02T20:44:11.632Z,16.30
2018-12-02T20:46:40.079Z,16.50
2018-12-02T20:49:09.119Z,13.60
2018-12-02T20:51:37.450Z,14.07
2018-12-02T20:54:06.373Z,17.93
2018-12-02T20:56:34.982Z,18.52
2018-12-02T20:59:03.337Z,22.15
2018-12-02T21:01:31.624Z,20.37
2018-12-02T21:04:00.156Z,19.48
2018-12-02T21:06:28.559Z,16.20
2018-12-02T21:08:58.091Z,17.33
2018-12-02T21:11:26.404Z,19.95
2018-12-02T21:13:55.391Z,22.70
2018-12-02T21:16:24.120Z,19.87
2018-12-02T21:18:52.497Z,18.52
2018-12-02T21:21:21.823Z,16.27
2018-12-02T21:23:51.098Z,19.07
2018-12-02T21:26:19.486Z,21.40
2018-12-02T21:28:56.392Z,14.58
2018-12-02T21:31:24.780Z,21.45
2018-12-02T21:33:54.334Z,21.17
2018-12-02T21:36:22.695Z,17.57
2018-12-02T21:38:54.683Z,17.63
2018-12-02T21:41:23.109Z,15.60
2018-12-02T21:43:56.539Z,18.00
2018-12-02T21:46:24.942Z,19.17
2018-12-02T21:48:55.525Z,16.20
2018-12-02T21:51:26.617Z,19.30
2018-12-02T21:53:58.907Z,18.15
2018-12-02T21:56:27.863Z,17.62
2018-12-02T21:58:57.339Z,20.08
2018-12-02T22:01:28.538Z,19.27
2018-12-02T22:03:59.015Z,24.30
2018-12-02T22:06:30.478Z,23.97
2018-12-02T22:09:03.930Z,20.62
2018-12-02T22:11:34.033Z,18.90
2018-12-02T22:14:11.040Z,22.77
2018-12-02T22:16:39.344Z,11.00
2018-12-02T22:19:08.792Z,13.65
2018-12-02T22:21:40.537Z,14.50
2018-12-02T22:28:04.879Z,11.30
2018-12-02T22:30:46.249Z,10.88
2018-12-02T22:36:22.068Z,6.85
2018-12-02T22:39:02.113Z,11.33
2018-12-02T22:41:37.802Z,16.62
2018-12-02T22:44:10.227Z,12.93
2018-12-02T22:49:26.676Z,13.05
2018-12-02T22:51:57.872Z,15.27
2018-12-02T22:54:28.178Z,16.25
2018-12-02T22:56:58.258Z,14.00
2018-12-02T22:59:29.760Z,13.53
2018-12-02T23:02:05.303Z,13.22
2018-12-02T23:04:35.113Z,14.60
2018-12-02T23:07:05.604Z,16.65
2018-12-02T23:09:36.303Z,14.70
2018-12-02T23:12:07.300Z,12.58
2018-12-02T23:14:37.588Z,12.90
2018-12-02T23:17:22.778Z,14.93
2018-12-02T23:19:53.182Z,21.70
2018-12-02T23:22:23.700Z,11.87
2018-12-02T23:24:54.775Z,15.97
2018-12-02T23:27:24.808Z,14.23
2018-12-02T23:29:55.450Z,12.17
2018-12-02T23:32:25.635Z,16.40
2018-12-02T23:34:56.094Z,15.80
2018-12-02T23:37:27.244Z,20.50
2018-12-02T23:39:57.435Z,19.77
2018-12-02T23:42:28.651Z,23.27
2018-12-02T23:44:58.834Z,20.67
2018-12-02T23:47:30.243Z,25.93
2018-12-02T23:50:01.021Z,20.70
2018-12-02T23:52:31.777Z,20.80
2018-12-02T23:55:01.533Z,21.50
2018-12-02T23:57:32.118Z,19.67
